sensor_id;sensor_type;location;lat;lon;timestamp;pressure;altitude;pressure_sealevel;temperature;humidity
48386;BME280;34644;47.964;7.982;2022-07-17T00:05:33;97362.44;;;23.59;44.71
48386;BME280;34644;47.964;7.982;2022-07-17T00:12:33;97359.75;;;23.59;44.64
48386;BME280;34644;47.964;7.982;2022-07-17T00:19:34;97353.09;;;23.56;44.80
48386;BME280;34644;47.964;7.982;2022-07-17T00:26:34;97352.78;;;23.58;44.49
48386;BME280;34644;47.964;7.982;2022-07-17T00:33:34;97355.78;;;23.56;44.73
48386;BME280;34644;47.964;7.982;2022-07-17T00:40:35;97356.09;;;23.55;44.59
48386;BME280;34644;47.964;7.982;2022-07-17T00:47:46;97348.78;;;23.55;44.72
48386;BME280;34644;47.964;7.982;2022-07-17T00:54:48;97364.16;;;23.55;44.66
48386;BME280;34644;47.964;7.982;2022-07-17T01:01:50;97343.72;;;23.54;44.77
48386;BME280;34644;47.964;7.982;2022-07-17T01:08:50;97344.50;;;23.54;44.79
48386;BME280;34644;47.964;7.982;2022-07-17T01:15:50;97345.09;;;23.51;44.60
48386;BME280;34644;47.964;7.982;2022-07-17T01:22:51;97339.72;;;23.51;44.90
48386;BME280;34644;47.964;7.982;2022-07-17T01:29:51;97333.56;;;23.51;44.75
48386;BME280;34644;47.964;7.982;2022-07-17T01:36:51;97331.94;;;23.49;44.97
48386;BME280;34644;47.964;7.982;2022-07-17T01:43:52;97337.31;;;23.49;44.75
48386;BME280;34644;47.964;7.982;2022-07-17T01:50:52;97346.22;;;23.50;44.97
48386;BME280;34644;47.964;7.982;2022-07-17T01:57:52;97341.91;;;23.49;44.68
48386;BME280;34644;47.964;7.982;2022-07-17T02:04:53;97339.53;;;23.47;44.76
48386;BME280;34644;47.964;7.982;2022-07-17T02:11:53;97337.13;;;23.46;45.05
48386;BME280;34644;47.964;7.982;2022-07-17T02:18:53;97334.16;;;23.47;44.74
48386;BME280;34644;47.964;7.982;2022-07-17T02:25:56;97338.75;;;23.47;45.05
48386;BME280;34644;47.964;7.982;2022-07-17T02:32:56;97333.66;;;23.45;44.90
48386;BME280;34644;47.964;7.982;2022-07-17T02:39:57;97329.38;;;23.44;44.76
48386;BME280;34644;47.964;7.982;2022-07-17T02:46:58;97331.28;;;23.44;44.87
48386;BME280;34644;47.964;7.982;2022-07-17T02:53:58;97327.75;;;23.43;44.80
48386;BME280;34644;47.964;7.982;2022-07-17T03:00:59;97327.75;;;23.43;44.93
48386;BME280;34644;47.964;7.982;2022-07-17T03:07:59;97323.50;;;23.42;44.81
48386;BME280;34644;47.964;7.982;2022-07-17T03:14:59;97320.00;;;23.42;45.05
48386;BME280;34644;47.964;7.982;2022-07-17T03:21:59;97312.22;;;23.40;44.93
48386;BME280;34644;47.964;7.982;2022-07-17T03:29:00;97314.63;;;23.42;44.94
48386;BME280;34644;47.964;7.982;2022-07-17T03:36:00;97317.59;;;23.40;45.02
48386;BME280;34644;47.964;7.982;2022-07-17T03:43:00;97316.81;;;23.40;44.96
48386;BME280;34644;47.964;7.982;2022-07-17T03:50:01;97323.28;;;23.39;44.83
48386;BME280;34644;47.964;7.982;2022-07-17T03:57:01;97313.63;;;23.38;44.92
48386;BME280;34644;47.964;7.982;2022-07-17T04:04:01;97319.31;;;23.36;44.90
48386;BME280;34644;47.964;7.982;2022-07-17T04:11:02;97325.47;;;23.37;44.89
48386;BME280;34644;47.964;7.982;2022-07-17T04:18:02;97322.00;;;23.36;44.94
48386;BME280;34644;47.964;7.982;2022-07-17T04:25:02;97315.03;;;23.35;44.98
48386;BME280;34644;47.964;7.982;2022-07-17T04:32:03;97319.31;;;23.36;44.84
48386;BME280;34644;47.964;7.982;2022-07-17T04:39:03;97315.03;;;23.35;45.09
48386;BME280;34644;47.964;7.982;2022-07-17T04:46:03;97317.72;;;23.35;44.77
48386;BME280;34644;47.964;7.982;2022-07-17T04:53:03;97317.72;;;23.35;44.78
48386;BME280;34644;47.964;7.982;2022-07-17T05:00:05;97321.50;;;23.34;44.84
48386;BME280;34644;47.964;7.982;2022-07-17T05:07:05;97330.66;;;23.33;44.92
48386;BME280;34644;47.964;7.982;2022-07-17T05:14:05;97326.06;;;23.34;44.84
48386;BME280;34644;47.964;7.982;2022-07-17T05:21:06;97339.53;;;23.34;44.95
48386;BME280;34644;47.964;7.982;2022-07-17T05:28:06;97342.22;;;23.34;44.75
48386;BME280;34644;47.964;7.982;2022-07-17T05:35:06;97339.53;;;23.34;44.93
48386;BME280;34644;47.964;7.982;2022-07-17T05:42:07;97339.53;;;23.34;44.72
48386;BME280;34644;47.964;7.982;2022-07-17T05:49:07;97343.81;;;23.35;45.06
48386;BME280;34644;47.964;7.982;2022-07-17T05:56:07;97338.72;;;23.33;44.71
48386;BME280;34644;47.964;7.982;2022-07-17T06:03:07;97341.44;;;23.33;44.99
48386;BME280;34644;47.964;7.982;2022-07-17T06:10:08;97335.75;;;23.35;44.72
48386;BME280;34644;47.964;7.982;2022-07-17T06:17:08;97326.06;;;23.34;45.11
48386;BME280;34644;47.964;7.982;2022-07-17T06:24:08;97323.09;;;23.35;44.96
48386;BME280;34644;47.964;7.982;2022-07-17T06:31:09;97333.84;;;23.35;45.03
48386;BME280;34644;47.964;7.982;2022-07-17T06:38:09;97336.72;;;23.39;44.74
48386;BME280;34644;47.964;7.982;2022-07-17T06:45:10;97339.94;;;23.41;45.06
48386;BME280;34644;47.964;7.982;2022-07-17T06:52:10;97332.34;;;23.43;45.06
48386;BME280;34644;47.964;7.982;2022-07-17T06:59:11;97342.31;;;23.42;44.79
48386;BME280;34644;47.964;7.982;2022-07-17T07:06:11;97357.88;;;23.45;44.95
48386;BME280;34644;47.964;7.982;2022-07-17T07:13:11;97349.22;;;23.48;44.75
48386;BME280;34644;47.964;7.982;2022-07-17T07:20:15;97344.13;;;23.47;44.79
48386;BME280;34644;47.964;7.982;2022-07-17T07:27:16;97337.75;;;23.57;44.84
48386;BME280;34644;47.964;7.982;2022-07-17T07:34:16;97335.03;;;23.57;44.75
48386;BME280;34644;47.964;7.982;2022-07-17T07:41:16;97318.19;;;23.65;44.56
48386;BME280;34644;47.964;7.982;2022-07-17T07:48:17;97317.78;;;23.72;44.45
48386;BME280;34644;47.964;7.982;2022-07-17T07:55:17;97326.06;;;23.75;44.46
48386;BME280;34644;47.964;7.982;2022-07-17T08:02:17;97327.63;;;23.76;44.16
48386;BME280;34644;47.964;7.982;2022-07-17T08:09:18;97328.94;;;23.79;44.40
48386;BME280;34644;47.964;7.982;2022-07-17T08:16:18;97335.41;;;23.78;44.37
48386;BME280;34644;47.964;7.982;2022-07-17T08:23:18;97337.31;;;23.77;44.27
48386;BME280;34644;47.964;7.982;2022-07-17T08:30:18;97343.47;;;23.78;44.52
48386;BME280;34644;47.964;7.982;2022-07-17T08:37:19;97347.28;;;23.77;44.34
48386;BME280;34644;47.964;7.982;2022-07-17T08:44:19;97350.28;;;23.75;44.32
48386;BME280;34644;47.964;7.982;2022-07-17T08:51:19;97346.78;;;23.75;44.39
48386;BME280;34644;47.964;7.982;2022-07-17T08:58:20;97344.38;;;23.73;44.43
48386;BME280;34644;47.964;7.982;2022-07-17T09:05:20;97346.88;;;23.70;44.57
48386;BME280;34644;47.964;7.982;2022-07-17T09:12:28;97351.50;;;23.69;44.63
48386;BME280;34644;47.964;7.982;2022-07-17T09:19:30;97346.09;;;23.69;44.51
48386;BME280;34644;47.964;7.982;2022-07-17T09:26:32;97347.97;;;23.69;44.54
48386;BME280;34644;47.964;7.982;2022-07-17T09:33:33;97350.66;;;23.69;44.46
48386;BME280;34644;47.964;7.982;2022-07-17T09:40:33;97351.50;;;23.69;44.84
48386;BME280;34644;47.964;7.982;2022-07-17T09:47:52;97359.03;;;23.67;44.68
48386;BME280;34644;47.964;7.982;2022-07-17T09:54:54;97356.47;;;23.62;45.00
48386;BME280;34644;47.964;7.982;2022-07-17T10:01:54;97366.44;;;23.61;44.98
48386;BME280;34644;47.964;7.982;2022-07-17T10:08:55;97375.28;;;23.62;45.21
48386;BME280;34644;47.964;7.982;2022-07-17T10:15:55;97361.84;;;23.62;45.26
48386;BME280;34644;47.964;7.982;2022-07-17T10:22:55;97354.84;;;23.61;45.14
48386;BME280;34644;47.964;7.982;2022-07-17T10:36:59;97351.88;;;23.62;45.17
48386;BME280;34644;47.964;7.982;2022-07-17T10:43:59;97350.00;;;23.63;45.28
48386;BME280;34644;47.964;7.982;2022-07-17T10:50:59;97349.69;;;23.64;45.21
48386;BME280;34644;47.964;7.982;2022-07-17T10:58:00;97351.25;;;23.65;45.33
48386;BME280;34644;47.964;7.982;2022-07-17T11:05:07;97347.50;;;23.66;45.32
48386;BME280;34644;47.964;7.982;2022-07-17T11:12:07;97340.72;;;23.69;45.23
48386;BME280;34644;47.964;7.982;2022-07-17T11:19:07;97341.50;;;23.70;45.15
48386;BME280;34644;47.964;7.982;2022-07-17T11:26:08;97342.81;;;23.72;45.23
48386;BME280;34644;47.964;7.982;2022-07-17T11:33:15;97337.13;;;23.74;45.29
48386;BME280;34644;47.964;7.982;2022-07-17T11:40:16;97323.38;;;23.75;45.36
48386;BME280;34644;47.964;7.982;2022-07-17T11:47:24;97315.78;;;23.77;45.42
48386;BME280;34644;47.964;7.982;2022-07-17T11:54:24;97307.41;;;23.79;45.45
48386;BME280;34644;47.964;7.982;2022-07-17T12:01:27;97311.38;;;23.81;45.25
48386;BME280;34644;47.964;7.982;2022-07-17T12:08:28;97313.75;;;23.83;45.28
48386;BME280;34644;47.964;7.982;2022-07-17T12:15:35;97311.63;;;23.85;45.36
48386;BME280;34644;47.964;7.982;2022-07-17T12:22:46;97309.41;;;23.87;45.35
48386;BME280;34644;47.964;7.982;2022-07-17T12:29:46;97302.63;;;23.90;45.40
48386;BME280;34644;47.964;7.982;2022-07-17T12:36:47;97305.03;;;23.91;45.21
48386;BME280;34644;47.964;7.982;2022-07-17T12:43:47;97304.72;;;23.93;45.51
48386;BME280;34644;47.964;7.982;2022-07-17T12:50:47;97299.81;;;23.95;45.50
48386;BME280;34644;47.964;7.982;2022-07-17T12:57:48;97299.22;;;23.98;45.46
48386;BME280;34644;47.964;7.982;2022-07-17T13:04:48;97290.06;;;23.99;45.45
48386;BME280;34644;47.964;7.982;2022-07-17T13:11:48;97294.81;;;24.02;45.46
48386;BME280;34644;47.964;7.982;2022-07-17T13:18:49;97298.00;;;24.04;45.58
48386;BME280;34644;47.964;7.982;2022-07-17T13:25:49;97291.50;;;24.05;45.41
48386;BME280;34644;47.964;7.982;2022-07-17T13:32:49;97278.84;;;24.06;45.38
48386;BME280;34644;47.964;7.982;2022-07-17T13:39:49;97269.06;;;24.10;45.50
48386;BME280;34644;47.964;7.982;2022-07-17T13:46:50;97260.66;;;24.11;45.54
48386;BME280;34644;47.964;7.982;2022-07-17T13:53:50;97267.34;;;24.14;45.44
48386;BME280;34644;47.964;7.982;2022-07-17T14:00:50;97270.03;;;24.14;45.46
48386;BME280;34644;47.964;7.982;2022-07-17T14:07:50;97265.44;;;24.14;45.21
48386;BME280;34644;47.964;7.982;2022-07-17T14:14:51;97263.75;;;24.18;45.22
48386;BME280;34644;47.964;7.982;2022-07-17T14:21:51;97256.16;;;24.20;45.35
48386;BME280;34644;47.964;7.982;2022-07-17T14:28:52;97250.94;;;24.24;45.33
48386;BME280;34644;47.964;7.982;2022-07-17T14:35:52;97254.44;;;24.25;45.39
48386;BME280;34644;47.964;7.982;2022-07-17T14:42:52;97249.53;;;24.27;45.33
48386;BME280;34644;47.964;7.982;2022-07-17T14:49:52;97255.91;;;24.31;45.24
48386;BME280;34644;47.964;7.982;2022-07-17T14:56:53;97258.00;;;24.34;45.22
48386;BME280;34644;47.964;7.982;2022-07-17T15:03:53;97260.69;;;24.34;45.38
48386;BME280;34644;47.964;7.982;2022-07-17T15:10:53;97248.19;;;24.38;45.19
48386;BME280;34644;47.964;7.982;2022-07-17T15:17:54;97258.00;;;24.34;45.48
48386;BME280;34644;47.964;7.982;2022-07-17T15:24:54;97250.88;;;24.38;45.36
48386;BME280;34644;47.964;7.982;2022-07-17T15:31:54;97253.78;;;24.42;45.42
48386;BME280;34644;47.964;7.982;2022-07-17T15:38:56;97256.09;;;24.34;45.33
48386;BME280;34644;47.964;7.982;2022-07-17T15:45:56;97258.22;;;24.46;45.14
48386;BME280;34644;47.964;7.982;2022-07-17T15:52:56;97258.09;;;24.51;45.35
48386;BME280;34644;47.964;7.982;2022-07-17T15:59:59;97251.13;;;24.50;45.39
48386;BME280;34644;47.964;7.982;2022-07-17T16:07:00;97244.22;;;24.58;44.96
48386;BME280;34644;47.964;7.982;2022-07-17T16:14:00;97241.81;;;24.56;45.12
48386;BME280;34644;47.964;7.982;2022-07-17T16:21:00;97236.72;;;24.55;45.05
48386;BME280;34644;47.964;7.982;2022-07-17T16:28:01;97222.34;;;24.60;44.95
48386;BME280;34644;47.964;7.982;2022-07-17T16:35:01;97221.56;;;24.59;45.20
48386;BME280;34644;47.964;7.982;2022-07-17T16:42:02;97224.34;;;24.54;45.20
48386;BME280;34644;47.964;7.982;2022-07-17T16:49:02;97215.47;;;24.53;45.31
48386;BME280;34644;47.964;7.982;2022-07-17T16:56:02;97213.09;;;24.52;45.30
48386;BME280;34644;47.964;7.982;2022-07-17T17:03:03;97218.31;;;24.48;44.75
48386;BME280;34644;47.964;7.982;2022-07-17T17:10:04;97229.56;;;24.50;44.89
48386;BME280;34644;47.964;7.982;2022-07-17T17:17:04;97223.88;;;24.52;45.00
48386;BME280;34644;47.964;7.982;2022-07-17T17:24:05;97224.34;;;24.54;45.02
48386;BME280;34644;47.964;7.982;2022-07-17T17:31:05;97229.72;;;24.54;44.71
48386;BME280;34644;47.964;7.982;2022-07-17T17:38:05;97223.44;;;24.59;45.19
48386;BME280;34644;47.964;7.982;2022-07-17T17:45:06;97230.91;;;24.62;45.07
48386;BME280;34644;47.964;7.982;2022-07-17T17:52:06;97236.59;;;24.60;45.23
48386;BME280;34644;47.964;7.982;2022-07-17T17:59:06;97230.91;;;24.62;45.39
48386;BME280;34644;47.964;7.982;2022-07-17T18:06:07;97243.91;;;24.60;45.34
48386;BME280;34644;47.964;7.982;2022-07-17T18:13:07;97245.97;;;24.63;45.26
48386;BME280;34644;47.964;7.982;2022-07-17T18:20:09;97253.28;;;24.62;45.37
48386;BME280;34644;47.964;7.982;2022-07-17T18:27:10;97262.16;;;24.63;45.52
48386;BME280;34644;47.964;7.982;2022-07-17T18:34:10;97263.25;;;24.62;45.52
48386;BME280;34644;47.964;7.982;2022-07-17T18:41:11;97262.94;;;24.63;45.56
48386;BME280;34644;47.964;7.982;2022-07-17T18:48:11;97267.84;;;24.61;45.63
48386;BME280;34644;47.964;7.982;2022-07-17T18:55:11;97264.84;;;24.63;45.63
48386;BME280;34644;47.964;7.982;2022-07-17T19:02:11;97272.63;;;24.64;45.45
48386;BME280;34644;47.964;7.982;2022-07-17T19:09:12;97278.19;;;24.68;45.55
48386;BME280;34644;47.964;7.982;2022-07-17T19:16:12;97290.72;;;24.72;45.52
48386;BME280;34644;47.964;7.982;2022-07-17T19:23:12;97299.28;;;24.74;45.59
48386;BME280;34644;47.964;7.982;2022-07-17T19:30:13;97307.59;;;24.78;46.04
48386;BME280;34644;47.964;7.982;2022-07-17T19:37:14;97319.63;;;24.81;45.78
48386;BME280;34644;47.964;7.982;2022-07-17T19:44:14;97330.59;;;24.39;43.04
48386;BME280;34644;47.964;7.982;2022-07-17T19:51:15;97342.59;;;24.33;42.55
48386;BME280;34644;47.964;7.982;2022-07-17T19:58:15;97347.72;;;24.20;40.99
48386;BME280;34644;47.964;7.982;2022-07-17T20:05:15;97353.41;;;24.19;41.52
48386;BME280;34644;47.964;7.982;2022-07-17T20:12:15;97360.22;;;24.16;41.49
48386;BME280;34644;47.964;7.982;2022-07-17T20:19:16;97362.59;;;24.18;40.69
48386;BME280;34644;47.964;7.982;2022-07-17T20:26:16;97359.38;;;24.16;40.60
48386;BME280;34644;47.964;7.982;2022-07-17T20:33:16;97355.81;;;24.07;39.62
48386;BME280;34644;47.964;7.982;2022-07-17T20:40:16;97357.25;;;24.04;39.72
48386;BME280;34644;47.964;7.982;2022-07-17T20:47:17;97350.25;;;24.03;40.00
48386;BME280;34644;47.964;7.982;2022-07-17T20:54:17;97351.97;;;23.99;39.63
48386;BME280;34644;47.964;7.982;2022-07-17T21:01:18;97349.88;;;23.96;39.66
48386;BME280;34644;47.964;7.982;2022-07-17T21:08:19;97351.75;;;23.95;39.91
48386;BME280;34644;47.964;7.982;2022-07-17T21:15:22;97345.41;;;23.91;39.72
48386;BME280;34644;47.964;7.982;2022-07-17T21:22:22;97343.31;;;23.88;39.70
48386;BME280;34644;47.964;7.982;2022-07-17T21:29:23;97342.31;;;23.84;39.57
48386;BME280;34644;47.964;7.982;2022-07-17T21:36:23;97350.66;;;23.82;39.98
48386;BME280;34644;47.964;7.982;2022-07-17T21:43:23;97355.06;;;23.78;39.69
48386;BME280;34644;47.964;7.982;2022-07-17T21:50:23;97355.66;;;23.75;39.73
48386;BME280;34644;47.964;7.982;2022-07-17T21:57:24;97366.22;;;23.72;39.99
48386;BME280;34644;47.964;7.982;2022-07-17T22:04:24;97362.25;;;23.69;39.93
48386;BME280;34644;47.964;7.982;2022-07-17T22:11:25;97363.75;;;23.61;39.50
48386;BME280;34644;47.964;7.982;2022-07-17T22:18:25;97356.28;;;23.58;39.14
48386;BME280;34644;47.964;7.982;2022-07-17T22:25:25;97346.09;;;23.55;38.95
48386;BME280;34644;47.964;7.982;2022-07-17T22:32:26;97348.59;;;23.52;39.08
48386;BME280;34644;47.964;7.982;2022-07-17T22:39:26;97337.94;;;23.46;38.77
48386;BME280;34644;47.964;7.982;2022-07-17T22:46:26;97336.34;;;23.45;38.88
48386;BME280;34644;47.964;7.982;2022-07-17T22:53:27;97333.16;;;23.43;38.54
48386;BME280;34644;47.964;7.982;2022-07-17T23:00:27;97341.13;;;23.35;38.66
48386;BME280;34644;47.964;7.982;2022-07-17T23:07:28;97342.50;;;23.32;38.64
48386;BME280;34644;47.964;7.982;2022-07-17T23:14:28;97341.53;;;23.28;38.56
48386;BME280;34644;47.964;7.982;2022-07-17T23:21:28;97344.00;;;23.24;38.36
48386;BME280;34644;47.964;7.982;2022-07-17T23:28:29;97350.25;;;23.20;37.98
48386;BME280;34644;47.964;7.982;2022-07-17T23:35:29;97343.81;;;23.21;38.24
48386;BME280;34644;47.964;7.982;2022-07-17T23:42:29;97341.22;;;23.16;38.10
48386;BME280;34644;47.964;7.982;2022-07-17T23:49:29;97332.38;;;23.15;37.97
48386;BME280;34644;47.964;7.982;2022-07-17T23:56:30;97330.56;;;23.10;38.11
